Time;durP1;ratioP1;P1;durP2;ratioP2;P2;SDS_P1;SDS_P2;PMS_P1;PMS_P2;Temp;Humidity;BMP_temperature;BMP_pressure;BME280_temperature;BME280_humidity;BME280_pressure;Samples;Min_cycle;Max_cycle;Signal;HPM_P1;HPM_P2
2022/03/07 00:00:30;;;;;;;14.30;8.50;;;1.60;83.30;;;;;;5083452;27;20056;-74
2022/03/07 00:02:56;;;;;;;18.85;9.65;;;1.60;83.20;;;;;;5089138;28;20043;-74
2022/03/07 00:05:22;;;;;;;16.52;8.73;;;1.60;83.60;;;;;;5087575;28;20169;-74
2022/03/07 00:07:47;;;;;;;14.32;8.25;;;1.50;83.40;;;;;;5085940;28;20098;-74
2022/03/07 00:10:13;;;;;;;15.90;9.00;;;1.40;83.50;;;;;;5085089;28;20161;-74
2022/03/07 00:12:39;;;;;;;15.65;8.70;;;1.50;83.70;;;;;;5090690;28;20036;-74
2022/03/07 00:15:05;;;;;;;17.90;9.50;;;1.50;83.80;;;;;;5089681;28;20024;-74
2022/03/07 00:17:30;;;;;;;18.58;10.32;;;1.30;83.80;;;;;;5091587;28;20134;-75
2022/03/07 00:19:56;;;;;;;18.85;9.18;;;1.50;83.60;;;;;;5089215;28;20028;-75
2022/03/07 00:22:22;;;;;;;16.42;8.25;;;1.30;84.00;;;;;;5089178;28;20036;-74
2022/03/07 00:24:47;;;;;;;16.65;8.65;;;1.30;83.40;;;;;;5088467;28;20063;-74
2022/03/07 00:27:13;;;;;;;15.75;8.80;;;1.30;84.20;;;;;;5089884;28;20106;-74
2022/03/07 00:29:39;;;;;;;15.65;8.57;;;1.40;83.70;;;;;;5089839;28;20024;-74
2022/03/07 00:32:05;;;;;;;16.55;9.00;;;1.40;83.80;;;;;;5086558;28;20047;-75
2022/03/07 00:34:30;;;;;;;17.48;8.68;;;1.40;83.50;;;;;;5086577;28;20493;-74
2022/03/07 00:36:56;;;;;;;20.85;8.93;;;1.20;83.80;;;;;;5090031;28;20049;-74
2022/03/07 00:39:22;;;;;;;18.65;8.48;;;1.20;83.80;;;;;;5090137;28;20020;-74
2022/03/07 00:41:47;;;;;;;17.65;7.85;;;1.10;84.50;;;;;;5082465;28;20032;-75
2022/03/07 00:44:13;;;;;;;18.52;9.00;;;1.00;84.20;;;;;;5088119;28;20028;-75
2022/03/07 00:46:39;;;;;;;15.57;9.57;;;0.90;84.50;;;;;;5088197;28;20145;-74
2022/03/07 00:49:04;;;;;;;16.30;9.13;;;0.90;84.60;;;;;;5087909;28;20063;-74
2022/03/07 00:51:30;;;;;;;17.13;9.10;;;0.90;84.60;;;;;;5085895;28;21102;-74
2022/03/07 00:53:56;;;;;;;21.73;8.73;;;0.90;84.50;;;;;;5088162;28;20047;-74
2022/03/07 00:56:21;;;;;;;15.73;8.30;;;1.00;84.70;;;;;;5088842;28;20031;-74
2022/03/07 00:58:47;;;;;;;18.75;10.48;;;1.00;84.80;;;;;;5086412;28;20032;-74
2022/03/07 01:01:13;;;;;;;15.18;8.95;;;0.90;84.90;;;;;;5087035;28;20039;-74
2022/03/07 01:03:39;;;;;;;17.30;9.23;;;1.00;84.60;;;;;;5083687;28;20449;-74
2022/03/07 01:06:04;;;;;;;16.00;9.43;;;1.00;84.70;;;;;;5088092;28;20036;-74
2022/03/07 01:08:30;;;;;;;16.08;8.50;;;0.90;84.90;;;;;;5085438;28;20069;-74
2022/03/07 01:10:56;;;;;;;18.25;8.95;;;0.90;84.90;;;;;;5088259;28;20024;-74
2022/03/07 01:13:22;;;;;;;16.33;8.65;;;0.90;85.20;;;;;;5085908;28;20069;-74
2022/03/07 01:15:48;;;;;;;18.08;9.65;;;0.90;85.00;;;;;;5086586;28;20490;-74
2022/03/07 01:18:14;;;;;;;17.15;9.88;;;0.70;85.70;;;;;;5087594;28;20813;-74
2022/03/07 01:20:41;;;;;;;18.83;9.02;;;0.90;84.90;;;;;;5086711;28;20036;-74
2022/03/07 01:23:07;;;;;;;17.98;9.32;;;0.90;84.90;;;;;;5088247;28;20153;-74
2022/03/07 01:25:33;;;;;;;18.02;8.70;;;0.90;84.90;;;;;;5088445;28;20028;-74
2022/03/07 01:27:58;;;;;;;19.48;10.30;;;0.90;84.60;;;;;;5089876;28;20032;-74
2022/03/07 01:30:24;;;;;;;19.13;9.63;;;0.90;85.00;;;;;;5089352;28;20024;-74
2022/03/07 01:32:52;;;;;;;19.98;11.02;;;0.80;85.10;;;;;;5083039;28;20063;-75
2022/03/07 01:35:18;;;;;;;17.55;10.27;;;0.80;85.70;;;;;;5083894;28;20155;-74
2022/03/07 01:37:45;;;;;;;19.52;9.68;;;0.80;85.60;;;;;;5090164;28;20115;-74
2022/03/07 01:40:11;;;;;;;21.67;10.13;;;0.80;85.60;;;;;;5085688;28;20032;-75
2022/03/07 01:42:37;;;;;;;16.63;8.95;;;0.90;85.30;;;;;;5086067;28;20135;-74
2022/03/07 01:45:13;;;;;;;18.67;9.63;;;0.80;85.30;;;;;;5087788;28;20111;-75
2022/03/07 01:47:40;;;;;;;18.48;9.80;;;0.80;86.20;;;;;;5089224;28;20093;-75
2022/03/07 01:50:08;;;;;;;19.70;9.27;;;0.80;85.60;;;;;;5085011;28;20126;-75
2022/03/07 01:52:36;;;;;;;17.42;9.23;;;0.80;85.40;;;;;;5088241;28;20036;-75
2022/03/07 01:55:03;;;;;;;20.63;9.75;;;0.80;85.50;;;;;;5086514;28;20077;-75
2022/03/07 01:57:30;;;;;;;17.83;8.52;;;0.70;86.00;;;;;;5086800;28;20036;-75
2022/03/07 01:59:57;;;;;;;16.63;8.82;;;0.70;85.80;;;;;;5087102;28;20437;-74
2022/03/07 02:02:24;;;;;;;18.20;8.80;;;0.70;85.80;;;;;;5086896;28;20397;-74
2022/03/07 02:04:51;;;;;;;17.90;8.32;;;0.80;85.60;;;;;;5079490;28;20121;-75
2022/03/07 02:07:17;;;;;;;19.88;10.93;;;0.70;85.50;;;;;;5084349;28;20527;-74
2022/03/07 02:09:43;;;;;;;16.60;9.55;;;0.80;85.50;;;;;;5086829;28;20028;-75
2022/03/07 02:12:09;;;;;;;19.63;9.70;;;0.80;85.50;;;;;;5086949;28;20094;-75
2022/03/07 02:14:35;;;;;;;20.45;10.23;;;0.70;85.60;;;;;;5088194;28;20032;-75
2022/03/07 02:17:01;;;;;;;19.67;9.02;;;0.70;85.80;;;;;;5092274;28;20123;-75
2022/03/07 02:19:27;;;;;;;19.92;10.13;;;0.60;85.90;;;;;;5089083;28;20059;-74
2022/03/07 02:22:00;;;;;;;18.17;9.82;;;0.60;86.50;;;;;;5091923;28;20075;-74
2022/03/07 02:24:26;;;;;;;20.17;9.95;;;0.50;86.60;;;;;;5089356;28;20490;-75
2022/03/07 02:27:00;;;;;;;18.35;8.30;;;0.50;86.40;;;;;;5089787;28;20081;-75
2022/03/07 02:29:26;;;;;;;20.45;10.00;;;0.40;86.90;;;;;;5091417;28;20031;-74
2022/03/07 02:31:52;;;;;;;16.92;8.93;;;0.40;86.80;;;;;;5089515;28;20050;-74
2022/03/07 02:34:18;;;;;;;20.42;10.38;;;0.40;86.80;;;;;;5090147;28;20036;-74
2022/03/07 02:36:44;;;;;;;18.42;9.98;;;0.40;87.00;;;;;;5091898;28;20103;-75
2022/03/07 02:39:10;;;;;;;20.55;10.15;;;0.40;87.00;;;;;;5087827;28;20078;-75
2022/03/07 02:41:39;;;;;;;24.05;9.32;;;0.30;87.10;;;;;;5087933;28;20133;-75
2022/03/07 02:44:06;;;;;;;19.17;10.05;;;0.30;87.40;;;;;;5090029;28;20158;-74
2022/03/07 02:46:32;;;;;;;16.55;9.45;;;0.20;87.90;;;;;;5090117;28;20055;-74
2022/03/07 02:48:57;;;;;;;17.55;10.07;;;0.30;87.70;;;;;;5089546;28;20491;-75
2022/03/07 02:51:23;;;;;;;19.88;10.27;;;0.30;87.70;;;;;;5088744;28;20032;-74
2022/03/07 02:53:52;;;;;;;18.30;9.80;;;0.30;87.70;;;;;;5090660;28;20476;-74
2022/03/07 02:56:17;;;;;;;21.08;10.27;;;0.20;88.20;;;;;;5089837;28;20117;-74
2022/03/07 02:58:43;;;;;;;18.35;9.52;;;0.30;87.80;;;;;;5086689;28;20062;-75
2022/03/07 03:01:09;;;;;;;17.35;9.75;;;0.20;87.80;;;;;;5088274;28;20036;-74
2022/03/07 03:03:35;;;;;;;17.85;10.23;;;0.10;88.30;;;;;;5089817;28;20024;-74
2022/03/07 03:06:01;;;;;;;24.77;10.73;;;0.20;88.30;;;;;;5091070;28;20043;-75
2022/03/07 03:08:27;;;;;;;22.88;10.77;;;0.20;88.50;;;;;;5088270;28;20123;-74
2022/03/07 03:10:56;;;;;;;27.92;9.90;;;0.20;88.60;;;;;;5090466;28;20016;-74
2022/03/07 03:13:23;;;;;;;20.27;10.35;;;0.20;87.70;;;;;;5089615;28;20498;-74
2022/03/07 03:15:49;;;;;;;19.38;10.05;;;0.30;87.80;;;;;;5084794;28;20032;-75
2022/03/07 03:18:16;;;;;;;22.73;10.80;;;0.30;87.60;;;;;;5090683;28;20056;-74
2022/03/07 03:20:43;;;;;;;21.42;9.40;;;0.20;88.00;;;;;;5090029;28;20134;-75
2022/03/07 03:23:09;;;;;;;21.08;10.25;;;0.20;87.90;;;;;;5089691;28;20482;-75
2022/03/07 03:25:35;;;;;;;19.05;10.45;;;0.30;87.80;;;;;;5090475;28;20031;-74
2022/03/07 03:28:01;;;;;;;17.40;9.85;;;0.30;87.70;;;;;;5088431;28;20027;-75
2022/03/07 03:30:27;;;;;;;21.33;9.57;;;0.40;87.60;;;;;;5089254;28;20089;-75
2022/03/07 03:32:52;;;;;;;21.25;9.65;;;0.40;87.50;;;;;;5085353;28;20027;-75
2022/03/07 03:35:18;;;;;;;18.33;9.70;;;0.40;87.50;;;;;;5091883;28;20051;-74
2022/03/07 03:37:44;;;;;;;21.27;11.88;;;0.40;87.50;;;;;;5089210;28;20054;-74
2022/03/07 03:40:11;;;;;;;19.58;10.23;;;0.30;87.40;;;;;;5089923;28;20461;-74
2022/03/07 03:42:37;;;;;;;18.85;9.35;;;0.30;87.60;;;;;;5087573;28;20175;-74
2022/03/07 03:45:05;;;;;;;22.58;10.20;;;0.30;87.50;;;;;;5090724;28;20474;-75
2022/03/07 03:47:32;;;;;;;22.95;11.25;;;0.40;87.30;;;;;;5085955;28;20032;-74
2022/03/07 03:49:58;;;;;;;22.27;10.70;;;0.40;87.50;;;;;;5090685;28;20494;-75
2022/03/07 03:52:24;;;;;;;17.45;9.75;;;0.40;87.50;;;;;;5088399;28;20154;-74
2022/03/07 03:54:50;;;;;;;18.75;10.60;;;0.30;87.60;;;;;;5090078;28;20051;-74
2022/03/07 03:57:16;;;;;;;20.92;10.57;;;0.20;87.50;;;;;;5088572;28;20035;-74
2022/03/07 03:59:41;;;;;;;21.48;11.32;;;0.10;87.90;;;;;;5087774;28;20369;-74
2022/03/07 04:02:07;;;;;;;20.38;10.13;;;0.10;88.10;;;;;;5084009;28;20517;-73
2022/03/07 04:04:33;;;;;;;20.55;9.15;;;0.00;88.40;;;;;;5080143;28;20094;-74
2022/03/07 04:06:59;;;;;;;16.65;9.13;;;0.00;88.60;;;;;;5078085;28;20192;-74
2022/03/07 04:09:25;;;;;;;20.55;10.45;;;-0.10;88.80;;;;;;5082783;28;20088;-74
2022/03/07 04:11:51;;;;;;;17.55;9.70;;;0.00;88.60;;;;;;5082260;28;20115;-74
2022/03/07 04:14:17;;;;;;;20.80;11.40;;;0.00;88.40;;;;;;5081220;28;20039;-74
2022/03/07 04:16:43;;;;;;;22.38;11.02;;;0.10;88.20;;;;;;5082615;28;20046;-74
2022/03/07 04:19:11;;;;;;;22.02;10.77;;;0.20;88.30;;;;;;5083547;28;20039;-74
2022/03/07 04:21:39;;;;;;;21.63;10.63;;;0.20;88.00;;;;;;5081951;28;20051;-73
2022/03/07 04:24:05;;;;;;;24.52;11.70;;;0.10;88.40;;;;;;5065198;28;20477;-74
2022/03/07 04:26:31;;;;;;;24.27;11.30;;;0.20;88.30;;;;;;5066478;28;20040;-74
2022/03/07 04:28:57;;;;;;;21.10;11.60;;;0.20;88.20;;;;;;5066442;28;20089;-74
2022/03/07 04:31:23;;;;;;;22.67;11.23;;;0.10;87.90;;;;;;5070429;28;20028;-74
2022/03/07 04:33:49;;;;;;;24.60;11.32;;;0.00;88.50;;;;;;5072886;28;20668;-74
2022/03/07 04:36:17;;;;;;;21.48;11.23;;;0.00;88.60;;;;;;5077140;28;20059;-74
2022/03/07 04:38:43;;;;;;;18.52;10.05;;;0.10;88.50;;;;;;5085709;28;20024;-74
2022/03/07 04:41:08;;;;;;;23.52;11.00;;;0.00;88.40;;;;;;5083345;28;20505;-74
2022/03/07 04:43:34;;;;;;;21.35;11.25;;;-0.20;89.00;;;;;;5085903;28;20028;-74
2022/03/07 04:46:00;;;;;;;23.63;12.02;;;-0.20;89.50;;;;;;5081830;28;20047;-74
2022/03/07 04:48:26;;;;;;;22.52;11.68;;;-0.60;90.30;;;;;;5080856;28;20032;-74
2022/03/07 04:50:52;;;;;;;22.88;11.75;;;-0.60;90.50;;;;;;5082425;28;20342;-74
2022/03/07 04:53:18;;;;;;;27.13;11.07;;;-0.50;90.40;;;;;;5084101;28;20031;-74
2022/03/07 04:55:43;;;;;;;22.75;11.63;;;-0.40;90.20;;;;;;5080843;28;20035;-74
2022/03/07 04:58:09;;;;;;;22.55;11.63;;;-0.40;90.20;;;;;;5078672;28;20028;-74
2022/03/07 05:00:35;;;;;;;22.15;11.68;;;-0.50;90.30;;;;;;5078296;28;20044;-74
2022/03/07 05:03:00;;;;;;;23.87;11.90;;;-0.30;90.20;;;;;;5081150;28;20056;-74
2022/03/07 05:05:26;;;;;;;20.92;10.65;;;-0.30;90.30;;;;;;5076425;28;20148;-74
2022/03/07 05:07:52;;;;;;;22.77;12.13;;;-0.50;90.50;;;;;;5079826;28;20127;-74
2022/03/07 05:10:19;;;;;;;24.73;12.37;;;-0.50;90.50;;;;;;5082631;28;20514;-74
2022/03/07 05:12:45;;;;;;;19.23;10.57;;;-0.40;90.40;;;;;;5080475;28;20627;-74
2022/03/07 05:15:11;;;;;;;23.70;10.43;;;-0.40;90.30;;;;;;5080923;28;20083;-74
2022/03/07 05:17:44;;;;;;;22.00;11.60;;;-0.50;90.40;;;;;;5080170;28;20106;-74
2022/03/07 05:20:11;;;;;;;25.10;12.03;;;-0.40;90.40;;;;;;5080163;28;20496;-74
2022/03/07 05:22:38;;;;;;;24.73;11.90;;;-0.60;90.40;;;;;;5079740;28;20127;-74
2022/03/07 05:25:05;;;;;;;23.17;12.65;;;-0.50;90.50;;;;;;5082227;28;20047;-74
2022/03/07 05:27:31;;;;;;;24.10;12.37;;;-0.70;90.70;;;;;;5082014;28;20032;-74
2022/03/07 05:29:56;;;;;;;23.13;11.17;;;-0.70;90.80;;;;;;5081102;28;20106;-74
2022/03/07 05:32:22;;;;;;;22.35;11.55;;;-0.60;90.70;;;;;;5078025;28;20107;-74
2022/03/07 05:34:48;;;;;;;23.53;12.53;;;-0.40;90.30;;;;;;5079956;28;20039;-74
2022/03/07 05:37:13;;;;;;;22.93;12.13;;;-0.40;90.30;;;;;;5079928;28;20103;-74
2022/03/07 05:39:39;;;;;;;26.43;13.23;;;-0.40;90.30;;;;;;5078379;28;20028;-74
2022/03/07 05:42:05;;;;;;;25.63;12.70;;;-0.60;90.50;;;;;;5081415;28;20047;-74
2022/03/07 05:44:31;;;;;;;24.70;11.17;;;-0.60;90.80;;;;;;5082125;28;20020;-74
2022/03/07 05:46:57;;;;;;;20.87;11.37;;;-0.60;90.70;;;;;;5080149;28;20097;-74
2022/03/07 05:49:23;;;;;;;22.53;12.27;;;-0.60;90.70;;;;;;5075951;28;20035;-74
2022/03/07 05:51:48;;;;;;;24.53;12.40;;;-0.20;90.30;;;;;;5083650;28;20077;-74
2022/03/07 05:54:14;;;;;;;20.88;12.02;;;-0.20;90.00;;;;;;5086058;28;20644;-74
2022/03/07 05:56:40;;;;;;;22.75;12.95;;;-0.40;90.30;;;;;;5085904;28;20924;-74
2022/03/07 05:59:06;;;;;;;19.77;11.02;;;-0.40;90.40;;;;;;5081330;28;20139;-73
2022/03/07 06:01:31;;;;;;;24.63;12.40;;;-0.40;90.60;;;;;;5063851;28;20036;-73
2022/03/07 06:03:57;;;;;;;24.58;12.38;;;-0.50;90.70;;;;;;5078785;28;20035;-72
2022/03/07 06:06:22;;;;;;;25.33;12.30;;;-0.40;90.60;;;;;;5079528;28;20031;-72
2022/03/07 06:08:48;;;;;;;22.40;12.02;;;-0.40;90.40;;;;;;5084137;28;20081;-72
2022/03/07 06:11:14;;;;;;;22.67;12.07;;;-0.40;90.50;;;;;;5083609;28;20032;-72
2022/03/07 06:13:39;;;;;;;20.98;11.85;;;-0.30;90.40;;;;;;5083848;28;20130;-72
2022/03/07 06:16:06;;;;;;;21.55;12.38;;;-0.30;90.40;;;;;;5085742;28;20032;-73
2022/03/07 06:18:32;;;;;;;22.58;12.75;;;-0.30;90.50;;;;;;5085118;28;20052;-72
2022/03/07 06:20:57;;;;;;;25.03;12.50;;;-0.20;90.40;;;;;;5084473;28;20139;-72
2022/03/07 06:23:23;;;;;;;23.17;12.02;;;-0.20;90.20;;;;;;5082133;28;20090;-72
2022/03/07 06:25:49;;;;;;;24.53;12.20;;;-0.20;90.20;;;;;;5085789;28;20043;-72
2022/03/07 06:28:15;;;;;;;26.27;12.67;;;-0.20;90.30;;;;;;5084687;28;20051;-73
2022/03/07 06:30:41;;;;;;;22.70;12.70;;;-0.20;90.20;;;;;;5082101;28;20070;-71
2022/03/07 06:33:07;;;;;;;24.90;12.63;;;0.00;90.40;;;;;;5087242;28;20338;-73
2022/03/07 06:35:32;;;;;;;22.30;13.98;;;-0.10;90.20;;;;;;5085846;28;20089;-73
2022/03/07 06:37:58;;;;;;;28.10;13.40;;;-0.20;90.40;;;;;;5082119;28;20620;-75
2022/03/07 06:40:24;;;;;;;27.42;12.82;;;-0.10;90.40;;;;;;5083138;28;20031;-72
2022/03/07 06:42:50;;;;;;;22.73;13.02;;;0.00;90.30;;;;;;5083506;28;20028;-73
2022/03/07 06:45:17;;;;;;;23.35;11.20;;;0.00;90.20;;;;;;5080675;28;20028;-73
2022/03/07 06:47:45;;;;;;;22.98;11.95;;;0.40;90.40;;;;;;5085982;28;20032;-74
2022/03/07 06:50:11;;;;;;;25.05;11.88;;;0.30;89.70;;;;;;5087385;28;20085;-73
2022/03/07 06:52:37;;;;;;;28.02;12.35;;;0.30;89.90;;;;;;5085192;28;20032;-72
2022/03/07 06:55:04;;;;;;;26.85;13.10;;;0.30;90.00;;;;;;5085131;28;20030;-73
2022/03/07 06:57:29;;;;;;;26.07;14.47;;;0.30;90.00;;;;;;5082084;28;20112;-73
2022/03/07 06:59:55;;;;;;;25.58;14.10;;;0.10;90.20;;;;;;5085530;28;20044;-73
2022/03/07 07:02:21;;;;;;;25.40;12.55;;;0.10;90.30;;;;;;5084376;28;20051;-73
2022/03/07 07:04:46;;;;;;;25.60;12.57;;;0.20;90.70;;;;;;5085186;28;20434;-73
2022/03/07 07:07:12;;;;;;;22.75;12.10;;;0.00;90.90;;;;;;5084913;28;20032;-73
2022/03/07 07:09:39;;;;;;;21.02;11.55;;;0.00;91.20;;;;;;5085367;28;20063;-73
2022/03/07 07:12:05;;;;;;;21.83;11.98;;;0.10;90.70;;;;;;5084167;28;20067;-73
2022/03/07 07:14:31;;;;;;;22.88;12.48;;;0.10;90.70;;;;;;5075987;28;20093;-73
2022/03/07 07:16:57;;;;;;;24.15;12.18;;;0.20;90.80;;;;;;5085370;28;20557;-73
2022/03/07 07:19:22;;;;;;;25.50;13.00;;;0.30;91.20;;;;;;5085810;28;20474;-73
2022/03/07 07:21:48;;;;;;;23.52;13.68;;;0.20;91.50;;;;;;5085752;28;20044;-73
2022/03/07 07:24:14;;;;;;;23.42;12.18;;;0.10;91.70;;;;;;5083860;28;20028;-72
2022/03/07 07:26:39;;;;;;;23.33;11.93;;;0.20;92.10;;;;;;5085374;28;20028;-73
2022/03/07 07:29:06;;;;;;;21.55;12.00;;;0.20;92.40;;;;;;5084574;28;20040;-73
2022/03/07 07:31:32;;;;;;;20.42;12.60;;;0.30;92.00;;;;;;5079146;28;20459;-73
2022/03/07 07:33:58;;;;;;;23.00;11.75;;;0.30;91.60;;;;;;5085012;28;20040;-73
2022/03/07 07:36:23;;;;;;;23.00;12.95;;;0.40;91.30;;;;;;5070796;28;20142;-73
2022/03/07 07:38:49;;;;;;;23.80;12.27;;;0.40;90.70;;;;;;5073890;28;20040;-73
2022/03/07 07:41:15;;;;;;;23.80;11.80;;;0.50;90.40;;;;;;5085145;28;20383;-73
2022/03/07 07:43:41;;;;;;;23.33;11.52;;;0.60;90.50;;;;;;5084760;28;20039;-74
2022/03/07 07:46:06;;;;;;;23.20;11.43;;;0.70;90.70;;;;;;5083047;28;20036;-73
2022/03/07 07:48:32;;;;;;;22.00;11.10;;;0.80;90.20;;;;;;5080029;28;20513;-74
2022/03/07 07:50:58;;;;;;;27.67;12.02;;;0.80;89.70;;;;;;5084632;28;20378;-74
2022/03/07 07:53:23;;;;;;;26.75;12.23;;;0.70;90.30;;;;;;5084677;28;20680;-74
2022/03/07 07:55:49;;;;;;;30.40;14.40;;;0.70;90.40;;;;;;5084422;28;20036;-74
2022/03/07 07:58:14;;;;;;;25.02;13.30;;;0.70;90.00;;;;;;5085134;28;20046;-73
2022/03/07 08:00:40;;;;;;;28.30;12.35;;;0.80;89.90;;;;;;5084198;28;20052;-73
2022/03/07 08:03:07;;;;;;;20.25;10.85;;;0.90;90.20;;;;;;5084738;28;20032;-74
2022/03/07 08:05:33;;;;;;;25.80;12.23;;;0.90;90.10;;;;;;5082983;28;20521;-74
2022/03/07 08:07:59;;;;;;;22.65;11.23;;;1.00;90.00;;;;;;5084575;28;20099;-72
2022/03/07 08:10:25;;;;;;;23.02;11.82;;;1.10;90.00;;;;;;5084099;28;20036;-73
2022/03/07 08:12:50;;;;;;;20.90;11.35;;;1.10;89.50;;;;;;5084219;28;20051;-71
2022/03/07 08:15:16;;;;;;;25.95;12.85;;;1.20;89.30;;;;;;5084082;28;20043;-72
2022/03/07 08:17:46;;;;;;;23.23;11.38;;;1.30;88.70;;;;;;5084326;28;20067;-72
2022/03/07 08:20:13;;;;;;;39.30;21.08;;;1.30;88.30;;;;;;5083753;28;20067;-72
2022/03/07 08:22:39;;;;;;;30.23;15.68;;;1.40;88.30;;;;;;5080448;28;20075;-71
2022/03/07 08:25:06;;;;;;;34.35;16.50;;;1.40;88.30;;;;;;5084326;28;20036;-72
2022/03/07 08:27:34;;;;;;;23.20;13.82;;;1.40;88.10;;;;;;5083799;28;20470;-72
2022/03/07 08:30:00;;;;;;;23.00;12.07;;;1.50;87.80;;;;;;5084116;28;20034;-72
2022/03/07 08:32:26;;;;;;;20.35;12.15;;;1.60;87.20;;;;;;5083748;28;20040;-72
2022/03/07 08:34:52;;;;;;;25.77;10.60;;;1.60;87.30;;;;;;5084033;28;20028;-72
2022/03/07 08:37:17;;;;;;;20.25;11.70;;;1.70;87.50;;;;;;5078792;28;20031;-72
2022/03/07 08:39:43;;;;;;;22.65;12.38;;;1.80;87.30;;;;;;5075389;28;20143;-70
2022/03/07 08:42:09;;;;;;;22.80;12.18;;;1.90;87.20;;;;;;5083485;28;20040;-70
2022/03/07 08:44:35;;;;;;;21.52;10.65;;;1.90;87.50;;;;;;5083077;28;20067;-70
2022/03/07 08:47:01;;;;;;;31.35;12.73;;;2.00;87.60;;;;;;5083158;28;20379;-71
2022/03/07 08:49:26;;;;;;;25.23;12.75;;;1.90;87.50;;;;;;5083863;28;20073;-73
2022/03/07 08:51:52;;;;;;;25.83;13.40;;;1.90;87.20;;;;;;5078602;28;20036;-70
2022/03/07 08:54:17;;;;;;;20.08;11.63;;;2.00;87.00;;;;;;5079448;28;20036;-70
2022/03/07 08:56:44;;;;;;;26.67;12.55;;;2.00;87.00;;;;;;5076810;28;20036;-71
2022/03/07 08:59:10;;;;;;;20.65;12.68;;;2.10;86.90;;;;;;5083025;28;20047;-70
2022/03/07 09:01:36;;;;;;;27.58;12.13;;;2.20;85.80;;;;;;5083316;28;20051;-70
2022/03/07 09:04:02;;;;;;;21.42;11.73;;;2.30;85.00;;;;;;5083376;28;20063;-70
2022/03/07 09:06:28;;;;;;;23.73;11.77;;;2.30;84.80;;;;;;5083315;28;20110;-71
2022/03/07 09:08:54;;;;;;;21.55;12.93;;;2.50;84.90;;;;;;5083172;28;20093;-71
2022/03/07 09:11:20;;;;;;;18.98;10.80;;;2.50;84.30;;;;;;5082238;28;20067;-71
2022/03/07 09:13:46;;;;;;;20.85;11.65;;;2.60;84.40;;;;;;5081298;28;20040;-71
2022/03/07 09:16:11;;;;;;;23.40;11.40;;;2.70;83.80;;;;;;5083435;28;20087;-71
2022/03/07 09:18:37;;;;;;;20.13;11.18;;;2.70;83.60;;;;;;5082295;28;20504;-71
2022/03/07 09:21:03;;;;;;;21.65;11.07;;;2.80;83.70;;;;;;5083113;28;20481;-71
2022/03/07 09:23:33;;;;;;;19.58;11.48;;;2.80;83.00;;;;;;5083207;28;20063;-71
2022/03/07 09:25:59;;;;;;;23.40;11.65;;;2.80;83.10;;;;;;5083148;28;20505;-71
2022/03/07 09:28:25;;;;;;;24.77;13.00;;;2.80;82.90;;;;;;5081801;28;20390;-71
2022/03/07 09:30:51;;;;;;;26.05;13.68;;;2.90;82.90;;;;;;5082734;28;20053;-71
2022/03/07 09:33:17;;;;;;;19.30;11.57;;;3.10;83.00;;;;;;5083299;28;20532;-72
2022/03/07 09:35:42;;;;;;;19.90;10.23;;;3.10;82.00;;;;;;5082384;28;20031;-71
2022/03/07 09:38:08;;;;;;;21.73;12.00;;;3.10;81.60;;;;;;5082870;28;20140;-71
2022/03/07 09:40:34;;;;;;;22.95;12.75;;;3.30;81.70;;;;;;5082838;28;20032;-71
2022/03/07 09:43:00;;;;;;;23.40;12.88;;;3.40;81.30;;;;;;5082853;28;20639;-71
2022/03/07 09:45:26;;;;;;;21.30;12.65;;;3.30;80.80;;;;;;5081081;28;20036;-71
2022/03/07 09:47:52;;;;;;;20.80;12.80;;;3.30;81.20;;;;;;5081115;28;20039;-71
2022/03/07 09:50:18;;;;;;;25.02;11.20;;;3.40;81.50;;;;;;5082147;28;20634;-71
2022/03/07 09:52:45;;;;;;;23.88;13.10;;;3.50;80.80;;;;;;5082687;28;20036;-72
2022/03/07 09:55:14;;;;;;;24.58;13.20;;;3.60;80.80;;;;;;5082563;28;20043;-71
2022/03/07 09:57:41;;;;;;;22.92;13.73;;;3.80;82.40;;;;;;5083314;28;20039;-71
2022/03/07 10:00:08;;;;;;;27.17;13.90;;;4.10;80.60;;;;;;5082546;28;20074;-71
2022/03/07 10:02:34;;;;;;;25.13;13.35;;;4.30;80.10;;;;;;5080080;28;20453;-71
2022/03/07 10:05:01;;;;;;;25.67;12.45;;;4.40;79.00;;;;;;5076972;28;20135;-71
2022/03/07 10:07:27;;;;;;;26.58;13.25;;;4.50;79.00;;;;;;5083009;28;20394;-71
2022/03/07 10:10:09;;;;;;;20.88;12.75;;;4.40;79.10;;;;;;5083086;28;20024;-71
2022/03/07 10:12:47;;;;;;;22.40;12.40;;;4.40;78.10;;;;;;5082459;28;20109;-71
2022/03/07 10:15:18;;;;;;;21.52;12.20;;;4.40;78.10;;;;;;5081103;28;20068;-72
2022/03/07 10:17:49;;;;;;;22.25;12.65;;;4.50;78.50;;;;;;5082810;28;20089;-71
2022/03/07 10:20:19;;;;;;;22.65;12.65;;;4.50;79.00;;;;;;5075515;28;20028;-71
2022/03/07 10:22:51;;;;;;;31.85;13.20;;;4.50;78.60;;;;;;5082688;28;20493;-71
2022/03/07 10:25:23;;;;;;;26.35;13.35;;;4.70;79.00;;;;;;5081874;28;20028;-71
2022/03/07 10:27:49;;;;;;;22.35;12.70;;;4.90;78.30;;;;;;5082358;28;20042;-72
2022/03/07 10:30:30;;;;;;;20.45;12.50;;;5.00;77.70;;;;;;5081885;28;20032;-71
2022/03/07 10:32:58;;;;;;;21.67;11.93;;;4.90;75.80;;;;;;5076893;28;20127;-71
2022/03/07 10:35:29;;;;;;;31.95;12.40;;;5.10;75.80;;;;;;5078446;28;20105;-71
2022/03/07 10:38:08;;;;;;;24.52;12.77;;;5.10;76.30;;;;;;5081523;28;20060;-72
2022/03/07 10:40:36;;;;;;;20.23;12.07;;;5.20;76.60;;;;;;5086069;28;20505;-72
2022/03/07 10:43:04;;;;;;;26.30;11.70;;;5.60;76.90;;;;;;5085770;28;20538;-72
2022/03/07 10:45:30;;;;;;;21.17;12.07;;;5.70;74.80;;;;;;5085895;28;20060;-72
2022/03/07 10:48:04;;;;;;;23.48;14.13;;;5.90;75.70;;;;;;5085125;28;20040;-72
2022/03/07 10:50:30;;;;;;;23.10;11.20;;;6.10;74.70;;;;;;5085521;28;20561;-71
2022/03/07 10:53:05;;;;;;;18.58;11.30;;;5.90;72.50;;;;;;5085088;28;20455;-71
2022/03/07 10:55:32;;;;;;;21.35;11.85;;;6.00;72.40;;;;;;5083644;28;20028;-72
2022/03/07 10:58:09;;;;;;;21.42;12.30;;;5.90;73.20;;;;;;5084061;28;20031;-72
2022/03/07 11:00:54;;;;;;;21.60;10.70;;;6.20;73.80;;;;;;5083803;28;20106;-72
2022/03/07 11:03:26;;;;;;;24.08;11.85;;;6.30;71.70;;;;;;5083960;28;20032;-72
2022/03/07 11:05:52;;;;;;;19.85;12.00;;;6.50;71.60;;;;;;5083912;28;20620;-72
2022/03/07 11:08:20;;;;;;;20.30;11.70;;;6.70;71.50;;;;;;5084993;28;20158;-72
2022/03/07 11:10:48;;;;;;;23.67;12.80;;;7.00;70.00;;;;;;5080650;28;20060;-72
2022/03/07 11:13:16;;;;;;;19.98;10.63;;;6.90;70.40;;;;;;5085264;28;20486;-72
2022/03/07 11:15:43;;;;;;;20.10;11.93;;;6.70;70.40;;;;;;5084892;28;20032;-72
2022/03/07 11:18:11;;;;;;;21.27;10.90;;;6.50;70.40;;;;;;5085226;28;20039;-72
2022/03/07 11:20:42;;;;;;;20.15;10.85;;;6.40;70.60;;;;;;5084415;28;20103;-72
2022/03/07 11:23:13;;;;;;;20.77;11.23;;;6.90;70.20;;;;;;5084096;28;20039;-72
2022/03/07 11:25:43;;;;;;;18.80;10.75;;;7.20;69.80;;;;;;5084497;28;20122;-72
2022/03/07 11:28:08;;;;;;;18.70;10.40;;;7.10;69.40;;;;;;5077099;28;20443;-71
2022/03/07 11:30:37;;;;;;;19.10;11.98;;;7.30;69.70;;;;;;5082249;28;20039;-72
2022/03/07 11:33:17;;;;;;;30.35;12.18;;;7.50;69.60;;;;;;5078391;28;20024;-72
2022/03/07 11:35:48;;;;;;;17.00;10.93;;;7.40;69.30;;;;;;5074946;28;20100;-71
2022/03/07 11:38:14;;;;;;;21.98;11.85;;;7.30;68.80;;;;;;5084808;28;20031;-72
2022/03/07 11:41:09;;;;;;;20.00;11.63;;;7.30;68.50;;;;;;5083810;28;20063;-72
2022/03/07 11:43:48;;;;;;;23.40;11.80;;;7.10;69.90;;;;;;5083881;28;20047;-72
2022/03/07 11:46:34;;;;;;;22.25;11.20;;;7.40;70.10;;;;;;5077014;28;20093;-72
2022/03/07 11:49:01;;;;;;;20.55;11.48;;;7.30;68.40;;;;;;5082409;28;20742;-72
2022/03/07 11:51:30;;;;;;;20.48;11.57;;;7.30;68.90;;;;;;5080670;28;20355;-71
2022/03/07 11:53:57;;;;;;;19.60;11.75;;;7.10;68.10;;;;;;5081134;28;20044;-72
2022/03/07 11:56:32;;;;;;;22.75;12.68;;;7.30;69.70;;;;;;5084159;28;20034;-72
2022/03/07 11:58:59;;;;;;;19.38;11.80;;;7.50;69.70;;;;;;5083598;28;20052;-72
2022/03/07 12:01:26;;;;;;;19.67;11.15;;;7.50;69.10;;;;;;5082220;28;20115;-72
2022/03/07 12:03:52;;;;;;;22.85;13.02;;;7.30;69.10;;;;;;5081635;28;20036;-72
2022/03/07 12:06:20;;;;;;;21.08;12.93;;;7.70;70.70;;;;;;5084055;28;20119;-72
2022/03/07 12:08:57;;;;;;;21.27;12.13;;;8.10;69.60;;;;;;5084653;28;20039;-72
2022/03/07 12:11:34;;;;;;;26.20;15.10;;;7.90;68.50;;;;;;5087277;28;20358;-70
2022/03/07 12:14:07;;;;;;;23.77;13.02;;;8.10;69.10;;;;;;5086527;28;20402;-70
2022/03/07 12:16:33;;;;;;;22.10;13.65;;;8.30;69.50;;;;;;5086245;28;20088;-72
2022/03/07 12:19:14;;;;;;;21.80;12.07;;;8.40;69.20;;;;;;5082199;28;20024;-72
2022/03/07 12:21:43;;;;;;;19.00;12.27;;;8.60;69.60;;;;;;5083859;28;20040;-72
2022/03/07 12:24:11;;;;;;;18.92;12.00;;;8.70;70.60;;;;;;5082835;28;20032;-72
2022/03/07 12:26:52;;;;;;;21.20;13.20;;;8.80;69.30;;;;;;5082721;28;20035;-72
2022/03/07 12:29:21;;;;;;;25.85;12.95;;;8.80;69.60;;;;;;5082802;28;20596;-72
2022/03/07 12:31:52;;;;;;;24.67;13.90;;;8.60;69.70;;;;;;5083190;28;20769;-72
2022/03/07 12:34:23;;;;;;;21.90;13.63;;;8.60;68.40;;;;;;5077345;28;20032;-72
2022/03/07 12:37:16;;;;;;;22.38;12.85;;;8.60;68.20;;;;;;5073997;28;20114;-71